sensor_id;sensor_type;location;lat;lon;timestamp;temperature;humidity
23301;DHT22;11819;51.394;12.340;2022-09-03T00:00:13;18.50;54.90
23301;DHT22;11819;51.394;12.340;2022-09-03T00:02:48;18.50;55.00
23301;DHT22;11819;51.394;12.340;2022-09-03T00:05:42;18.50;55.10
23301;DHT22;11819;51.394;12.340;2022-09-03T00:13:23;18.30;55.30
23301;DHT22;11819;51.394;12.340;2022-09-03T00:15:50;18.30;55.40
23301;DHT22;11819;51.394;12.340;2022-09-03T00:18:20;18.30;55.50
23301;DHT22;11819;51.394;12.340;2022-09-03T00:20:53;18.20;55.50
23301;DHT22;11819;51.394;12.340;2022-09-03T00:23:25;18.30;55.50
23301;DHT22;11819;51.394;12.340;2022-09-03T00:26:00;18.20;55.50
23301;DHT22;11819;51.394;12.340;2022-09-03T00:28:35;18.20;55.50
23301;DHT22;11819;51.394;12.340;2022-09-03T00:31:17;18.20;55.60
23301;DHT22;11819;51.394;12.340;2022-09-03T00:33:45;18.20;55.70
23301;DHT22;11819;51.394;12.340;2022-09-03T00:36:22;18.10;55.90
23301;DHT22;11819;51.394;12.340;2022-09-03T00:38:49;18.10;55.90
23301;DHT22;11819;51.394;12.340;2022-09-03T00:41:39;18.00;56.00
23301;DHT22;11819;51.394;12.340;2022-09-03T00:46:53;17.90;56.20
23301;DHT22;11819;51.394;12.340;2022-09-03T00:49:49;17.90;56.40
23301;DHT22;11819;51.394;12.340;2022-09-03T00:52:26;17.90;56.50
23301;DHT22;11819;51.394;12.340;2022-09-03T00:55:34;17.90;56.60
23301;DHT22;11819;51.394;12.340;2022-09-03T01:00:50;17.80;56.80
23301;DHT22;11819;51.394;12.340;2022-09-03T01:11:50;17.70;57.10
23301;DHT22;11819;51.394;12.340;2022-09-03T01:25:33;17.70;57.40
23301;DHT22;11819;51.394;12.340;2022-09-03T01:33:42;17.70;57.70
23301;DHT22;11819;51.394;12.340;2022-09-03T01:39:05;17.60;57.70
23301;DHT22;11819;51.394;12.340;2022-09-03T01:41:44;17.60;57.70
23301;DHT22;11819;51.394;12.340;2022-09-03T01:45:01;17.60;57.80
23301;DHT22;11819;51.394;12.340;2022-09-03T01:48:09;17.60;57.80
23301;DHT22;11819;51.394;12.340;2022-09-03T01:56:01;17.50;58.00
23301;DHT22;11819;51.394;12.340;2022-09-03T01:58:40;17.50;58.10
23301;DHT22;11819;51.394;12.340;2022-09-03T02:01:14;17.50;58.10
23301;DHT22;11819;51.394;12.340;2022-09-03T02:03:42;17.50;58.10
23301;DHT22;11819;51.394;12.340;2022-09-03T02:06:10;17.50;58.20
23301;DHT22;11819;51.394;12.340;2022-09-03T02:08:37;17.50;58.20
23301;DHT22;11819;51.394;12.340;2022-09-03T02:11:06;17.50;58.20
23301;DHT22;11819;51.394;12.340;2022-09-03T02:13:46;17.50;58.20
23301;DHT22;11819;51.394;12.340;2022-09-03T02:16:21;17.50;58.30
23301;DHT22;11819;51.394;12.340;2022-09-03T02:19:11;17.50;58.30
23301;DHT22;11819;51.394;12.340;2022-09-03T02:21:43;17.50;58.40
23301;DHT22;11819;51.394;12.340;2022-09-03T02:24:11;17.40;58.40
23301;DHT22;11819;51.394;12.340;2022-09-03T02:26:37;17.40;58.40
23301;DHT22;11819;51.394;12.340;2022-09-03T02:29:03;17.40;58.40
23301;DHT22;11819;51.394;12.340;2022-09-03T02:31:28;17.40;58.50
23301;DHT22;11819;51.394;12.340;2022-09-03T02:33:55;17.40;58.50
23301;DHT22;11819;51.394;12.340;2022-09-03T02:36:30;17.30;58.60
23301;DHT22;11819;51.394;12.340;2022-09-03T02:38:56;17.30;58.60
23301;DHT22;11819;51.394;12.340;2022-09-03T02:41:22;17.30;58.70
23301;DHT22;11819;51.394;12.340;2022-09-03T02:44:10;17.20;58.70
23301;DHT22;11819;51.394;12.340;2022-09-03T02:46:47;17.20;58.70
23301;DHT22;11819;51.394;12.340;2022-09-03T02:49:14;17.20;58.80
23301;DHT22;11819;51.394;12.340;2022-09-03T02:51:42;17.10;58.80
23301;DHT22;11819;51.394;12.340;2022-09-03T02:54:10;17.10;58.90
23301;DHT22;11819;51.394;12.340;2022-09-03T02:56:36;17.10;59.00
23301;DHT22;11819;51.394;12.340;2022-09-03T02:59:04;17.00;59.00
23301;DHT22;11819;51.394;12.340;2022-09-03T03:01:29;17.00;59.10
23301;DHT22;11819;51.394;12.340;2022-09-03T03:03:55;17.00;59.20
23301;DHT22;11819;51.394;12.340;2022-09-03T03:06:21;16.90;59.30
23301;DHT22;11819;51.394;12.340;2022-09-03T03:08:48;16.90;60.10
23301;DHT22;11819;51.394;12.340;2022-09-03T03:11:16;16.80;59.50
23301;DHT22;11819;51.394;12.340;2022-09-03T03:13:43;16.80;59.60
23301;DHT22;11819;51.394;12.340;2022-09-03T03:16:10;16.70;59.70
23301;DHT22;11819;51.394;12.340;2022-09-03T03:18:35;16.70;59.80
23301;DHT22;11819;51.394;12.340;2022-09-03T03:21:09;16.60;59.90
23301;DHT22;11819;51.394;12.340;2022-09-03T03:23:36;16.60;60.90
23301;DHT22;11819;51.394;12.340;2022-09-03T03:26:08;16.60;60.20
23301;DHT22;11819;51.394;12.340;2022-09-03T03:28:34;16.60;60.30
23301;DHT22;11819;51.394;12.340;2022-09-03T03:31:08;16.60;60.50
23301;DHT22;11819;51.394;12.340;2022-09-03T03:33:34;16.60;60.50
23301;DHT22;11819;51.394;12.340;2022-09-03T03:36:09;16.50;61.40
23301;DHT22;11819;51.394;12.340;2022-09-03T03:38:36;16.60;60.70
23301;DHT22;11819;51.394;12.340;2022-09-03T03:41:09;16.50;60.80
23301;DHT22;11819;51.394;12.340;2022-09-03T03:43:35;16.50;60.80
23301;DHT22;11819;51.394;12.340;2022-09-03T03:46:01;16.50;60.90
23301;DHT22;11819;51.394;12.340;2022-09-03T03:48:26;16.50;61.00
23301;DHT22;11819;51.394;12.340;2022-09-03T03:50:52;16.50;61.10
23301;DHT22;11819;51.394;12.340;2022-09-03T03:53:18;16.50;61.20
23301;DHT22;11819;51.394;12.340;2022-09-03T03:55:53;16.50;61.20
23301;DHT22;11819;51.394;12.340;2022-09-03T03:58:19;16.50;61.30
23301;DHT22;11819;51.394;12.340;2022-09-03T04:00:44;16.50;61.30
23301;DHT22;11819;51.394;12.340;2022-09-03T04:03:12;16.50;61.40
23301;DHT22;11819;51.394;12.340;2022-09-03T04:05:38;16.50;61.40
23301;DHT22;11819;51.394;12.340;2022-09-03T04:08:03;16.50;61.40
23301;DHT22;11819;51.394;12.340;2022-09-03T04:10:29;16.50;61.40
23301;DHT22;11819;51.394;12.340;2022-09-03T04:12:54;16.50;61.50
23301;DHT22;11819;51.394;12.340;2022-09-03T04:15:20;16.50;61.60
23301;DHT22;11819;51.394;12.340;2022-09-03T04:17:46;16.40;61.60
23301;DHT22;11819;51.394;12.340;2022-09-03T04:20:12;16.40;61.60
23301;DHT22;11819;51.394;12.340;2022-09-03T04:22:37;16.40;61.70
23301;DHT22;11819;51.394;12.340;2022-09-03T04:25:03;16.40;61.80
23301;DHT22;11819;51.394;12.340;2022-09-03T04:27:29;16.40;61.90
23301;DHT22;11819;51.394;12.340;2022-09-03T04:29:55;16.40;62.00
23301;DHT22;11819;51.394;12.340;2022-09-03T04:32:21;16.30;62.00
23301;DHT22;11819;51.394;12.340;2022-09-03T04:35:05;16.30;62.20
23301;DHT22;11819;51.394;12.340;2022-09-03T04:37:31;16.20;62.30
23301;DHT22;11819;51.394;12.340;2022-09-03T04:39:57;16.20;62.40
23301;DHT22;11819;51.394;12.340;2022-09-03T04:42:23;16.20;62.50
23301;DHT22;11819;51.394;12.340;2022-09-03T04:44:49;16.20;62.60
23301;DHT22;11819;51.394;12.340;2022-09-03T04:47:14;16.10;62.70
23301;DHT22;11819;51.394;12.340;2022-09-03T04:49:40;16.10;62.80
23301;DHT22;11819;51.394;12.340;2022-09-03T04:52:06;16.10;62.90
23301;DHT22;11819;51.394;12.340;2022-09-03T04:54:32;16.10;63.00
23301;DHT22;11819;51.394;12.340;2022-09-03T04:56:57;16.10;63.10
23301;DHT22;11819;51.394;12.340;2022-09-03T04:59:23;16.10;63.20
23301;DHT22;11819;51.394;12.340;2022-09-03T05:01:49;16.10;63.30
23301;DHT22;11819;51.394;12.340;2022-09-03T05:04:17;16.10;63.30
23301;DHT22;11819;51.394;12.340;2022-09-03T05:06:43;16.10;63.40
23301;DHT22;11819;51.394;12.340;2022-09-03T05:09:09;16.10;63.40
23301;DHT22;11819;51.394;12.340;2022-09-03T05:11:35;16.20;63.50
23301;DHT22;11819;51.394;12.340;2022-09-03T05:14:01;16.20;63.50
23301;DHT22;11819;51.394;12.340;2022-09-03T05:16:27;16.20;63.50
23301;DHT22;11819;51.394;12.340;2022-09-03T05:18:55;16.20;63.50
23301;DHT22;11819;51.394;12.340;2022-09-03T05:21:22;16.20;63.50
23301;DHT22;11819;51.394;12.340;2022-09-03T05:23:49;16.30;63.50
23301;DHT22;11819;51.394;12.340;2022-09-03T05:26:21;16.30;63.50
23301;DHT22;11819;51.394;12.340;2022-09-03T05:28:47;16.30;63.50
23301;DHT22;11819;51.394;12.340;2022-09-03T05:31:15;16.30;64.30
23301;DHT22;11819;51.394;12.340;2022-09-03T05:33:54;16.40;63.50
23301;DHT22;11819;51.394;12.340;2022-09-03T05:36:24;16.40;63.50
23301;DHT22;11819;51.394;12.340;2022-09-03T05:38:51;16.40;63.50
23301;DHT22;11819;51.394;12.340;2022-09-03T05:41:21;16.40;63.50
23301;DHT22;11819;51.394;12.340;2022-09-03T05:43:48;16.40;63.50
23301;DHT22;11819;51.394;12.340;2022-09-03T05:46:20;16.40;63.50
23301;DHT22;11819;51.394;12.340;2022-09-03T05:48:46;16.50;63.40
23301;DHT22;11819;51.394;12.340;2022-09-03T05:51:13;16.50;63.30
23301;DHT22;11819;51.394;12.340;2022-09-03T05:53:41;16.50;63.30
23301;DHT22;11819;51.394;12.340;2022-09-03T05:56:10;16.50;63.30
23301;DHT22;11819;51.394;12.340;2022-09-03T05:58:38;16.60;63.40
23301;DHT22;11819;51.394;12.340;2022-09-03T06:01:34;16.60;63.30
23301;DHT22;11819;51.394;12.340;2022-09-03T06:04:14;16.60;63.20
23301;DHT22;11819;51.394;12.340;2022-09-03T06:06:41;16.60;63.20
23301;DHT22;11819;51.394;12.340;2022-09-03T06:09:10;16.70;63.20
23301;DHT22;11819;51.394;12.340;2022-09-03T06:11:37;16.70;63.20
23301;DHT22;11819;51.394;12.340;2022-09-03T06:14:05;16.70;63.10
23301;DHT22;11819;51.394;12.340;2022-09-03T06:16:32;16.70;63.10
23301;DHT22;11819;51.394;12.340;2022-09-03T06:18:59;16.70;63.10
23301;DHT22;11819;51.394;12.340;2022-09-03T06:21:25;16.80;63.20
23301;DHT22;11819;51.394;12.340;2022-09-03T06:23:53;16.80;63.10
23301;DHT22;11819;51.394;12.340;2022-09-03T06:26:21;16.80;62.90
23301;DHT22;11819;51.394;12.340;2022-09-03T06:28:47;16.80;62.90
23301;DHT22;11819;51.394;12.340;2022-09-03T06:31:18;16.80;62.90
23301;DHT22;11819;51.394;12.340;2022-09-03T06:33:44;16.90;62.90
23301;DHT22;11819;51.394;12.340;2022-09-03T06:36:11;16.90;62.90
23301;DHT22;11819;51.394;12.340;2022-09-03T06:38:38;16.90;62.70
23301;DHT22;11819;51.394;12.340;2022-09-03T06:41:06;17.00;62.80
23301;DHT22;11819;51.394;12.340;2022-09-03T06:43:34;17.00;62.70
23301;DHT22;11819;51.394;12.340;2022-09-03T06:46:02;17.00;63.50
23301;DHT22;11819;51.394;12.340;2022-09-03T06:48:30;17.00;62.60
23301;DHT22;11819;51.394;12.340;2022-09-03T06:51:01;17.10;62.70
23301;DHT22;11819;51.394;12.340;2022-09-03T06:53:30;17.10;62.60
23301;DHT22;11819;51.394;12.340;2022-09-03T06:55:57;17.20;62.40
23301;DHT22;11819;51.394;12.340;2022-09-03T06:58:24;17.20;62.20
23301;DHT22;11819;51.394;12.340;2022-09-03T07:00:52;17.20;62.20
23301;DHT22;11819;51.394;12.340;2022-09-03T07:03:19;17.30;62.10
23301;DHT22;11819;51.394;12.340;2022-09-03T07:05:46;17.30;62.00
23301;DHT22;11819;51.394;12.340;2022-09-03T07:08:12;17.40;62.00
23301;DHT22;11819;51.394;12.340;2022-09-03T07:10:37;17.40;61.80
23301;DHT22;11819;51.394;12.340;2022-09-03T07:13:03;17.40;61.70
23301;DHT22;11819;51.394;12.340;2022-09-03T07:15:32;17.50;61.60
23301;DHT22;11819;51.394;12.340;2022-09-03T07:17:58;17.50;61.40
23301;DHT22;11819;51.394;12.340;2022-09-03T07:20:24;17.60;61.40
23301;DHT22;11819;51.394;12.340;2022-09-03T07:22:49;17.60;61.30
23301;DHT22;11819;51.394;12.340;2022-09-03T07:25:15;17.60;61.20
23301;DHT22;11819;51.394;12.340;2022-09-03T07:27:40;17.60;61.10
23301;DHT22;11819;51.394;12.340;2022-09-03T07:30:06;17.70;61.90
23301;DHT22;11819;51.394;12.340;2022-09-03T07:32:34;17.70;60.90
23301;DHT22;11819;51.394;12.340;2022-09-03T07:35:01;17.70;60.70
23301;DHT22;11819;51.394;12.340;2022-09-03T07:37:27;17.80;60.70
23301;DHT22;11819;51.394;12.340;2022-09-03T07:39:53;17.80;60.60
23301;DHT22;11819;51.394;12.340;2022-09-03T07:42:18;17.80;60.50
23301;DHT22;11819;51.394;12.340;2022-09-03T07:44:45;17.80;60.40
23301;DHT22;11819;51.394;12.340;2022-09-03T07:47:11;17.80;60.40
23301;DHT22;11819;51.394;12.340;2022-09-03T07:49:37;17.80;60.40
23301;DHT22;11819;51.394;12.340;2022-09-03T07:52:03;17.90;60.20
23301;DHT22;11819;51.394;12.340;2022-09-03T07:54:29;17.80;60.10
23301;DHT22;11819;51.394;12.340;2022-09-03T07:56:55;17.90;60.00
23301;DHT22;11819;51.394;12.340;2022-09-03T07:59:21;17.90;59.90
23301;DHT22;11819;51.394;12.340;2022-09-03T08:01:48;17.90;59.90
23301;DHT22;11819;51.394;12.340;2022-09-03T08:04:15;17.90;59.80
23301;DHT22;11819;51.394;12.340;2022-09-03T08:06:41;18.00;59.60
23301;DHT22;11819;51.394;12.340;2022-09-03T08:09:10;18.00;59.50
23301;DHT22;11819;51.394;12.340;2022-09-03T08:11:39;18.00;59.40
23301;DHT22;11819;51.394;12.340;2022-09-03T08:14:10;18.00;59.40
23301;DHT22;11819;51.394;12.340;2022-09-03T08:16:44;18.10;59.50
23301;DHT22;11819;51.394;12.340;2022-09-03T08:19:12;18.10;59.50
23301;DHT22;11819;51.394;12.340;2022-09-03T08:21:40;18.20;59.40
23301;DHT22;11819;51.394;12.340;2022-09-03T08:24:06;18.20;59.20
23301;DHT22;11819;51.394;12.340;2022-09-03T08:26:34;18.20;59.00
23301;DHT22;11819;51.394;12.340;2022-09-03T08:29:01;18.20;59.00
23301;DHT22;11819;51.394;12.340;2022-09-03T08:31:30;18.30;59.00
23301;DHT22;11819;51.394;12.340;2022-09-03T08:33:59;18.30;59.00
23301;DHT22;11819;51.394;12.340;2022-09-03T08:36:30;18.40;59.00
23301;DHT22;11819;51.394;12.340;2022-09-03T08:38:58;18.40;59.00
23301;DHT22;11819;51.394;12.340;2022-09-03T08:44:27;18.50;58.90
23301;DHT22;11819;51.394;12.340;2022-09-03T08:47:01;18.50;58.80
23301;DHT22;11819;51.394;12.340;2022-09-03T08:49:42;18.60;58.70
23301;DHT22;11819;51.394;12.340;2022-09-03T08:52:30;18.60;58.40
23301;DHT22;11819;51.394;12.340;2022-09-03T08:55:20;18.70;58.30
23301;DHT22;11819;51.394;12.340;2022-09-03T08:57:52;18.70;58.30
23301;DHT22;11819;51.394;12.340;2022-09-03T09:00:19;18.70;58.40
23301;DHT22;11819;51.394;12.340;2022-09-03T09:05:52;18.80;58.10
23301;DHT22;11819;51.394;12.340;2022-09-03T09:08:23;18.80;57.90
23301;DHT22;11819;51.394;12.340;2022-09-03T09:11:22;18.90;57.90
23301;DHT22;11819;51.394;12.340;2022-09-03T09:14:00;18.90;58.00
23301;DHT22;11819;51.394;12.340;2022-09-03T09:16:39;18.90;57.80
23301;DHT22;11819;51.394;12.340;2022-09-03T09:19:23;19.00;57.50
23301;DHT22;11819;51.394;12.340;2022-09-03T09:21:59;19.00;57.30
23301;DHT22;11819;51.394;12.340;2022-09-03T09:24:40;19.10;57.30
23301;DHT22;11819;51.394;12.340;2022-09-03T09:27:07;19.10;57.10
23301;DHT22;11819;51.394;12.340;2022-09-03T09:29:37;19.10;57.10
23301;DHT22;11819;51.394;12.340;2022-09-03T09:32:03;19.20;56.90
23301;DHT22;11819;51.394;12.340;2022-09-03T09:34:38;19.20;56.50
23301;DHT22;11819;51.394;12.340;2022-09-03T09:37:09;19.30;56.50
23301;DHT22;11819;51.394;12.340;2022-09-03T09:39:35;19.30;56.30
23301;DHT22;11819;51.394;12.340;2022-09-03T09:42:05;19.40;56.30
23301;DHT22;11819;51.394;12.340;2022-09-03T09:44:37;19.40;56.60
23301;DHT22;11819;51.394;12.340;2022-09-03T09:47:29;19.40;56.10
23301;DHT22;11819;51.394;12.340;2022-09-03T09:50:00;19.50;55.90
23301;DHT22;11819;51.394;12.340;2022-09-03T09:52:29;19.50;55.70
23301;DHT22;11819;51.394;12.340;2022-09-03T09:55:16;19.50;55.60
23301;DHT22;11819;51.394;12.340;2022-09-03T09:57:43;19.60;55.50
23301;DHT22;11819;51.394;12.340;2022-09-03T10:00:15;19.60;55.10
23301;DHT22;11819;51.394;12.340;2022-09-03T10:02:48;19.60;55.00
23301;DHT22;11819;51.394;12.340;2022-09-03T10:05:20;19.70;54.80
23301;DHT22;11819;51.394;12.340;2022-09-03T10:08:00;19.70;54.60
23301;DHT22;11819;51.394;12.340;2022-09-03T10:10:28;19.80;54.60
23301;DHT22;11819;51.394;12.340;2022-09-03T10:13:01;19.80;54.50
23301;DHT22;11819;51.394;12.340;2022-09-03T10:15:38;19.80;54.50
23301;DHT22;11819;51.394;12.340;2022-09-03T10:24:04;20.00;54.30
23301;DHT22;11819;51.394;12.340;2022-09-03T10:26:39;20.00;54.00
23301;DHT22;11819;51.394;12.340;2022-09-03T10:29:06;20.10;53.70
23301;DHT22;11819;51.394;12.340;2022-09-03T10:34:34;20.20;53.20
23301;DHT22;11819;51.394;12.340;2022-09-03T10:39:59;20.30;53.10
23301;DHT22;11819;51.394;12.340;2022-09-03T10:45:48;20.30;52.70
23301;DHT22;11819;51.394;12.340;2022-09-03T10:57:16;20.40;51.60
23301;DHT22;11819;51.394;12.340;2022-09-03T11:00:04;20.40;51.50
23301;DHT22;11819;51.394;12.340;2022-09-03T11:05:33;20.50;51.50
23301;DHT22;11819;51.394;12.340;2022-09-03T11:08:13;20.50;51.20
23301;DHT22;11819;51.394;12.340;2022-09-03T11:10:45;20.60;51.30
23301;DHT22;11819;51.394;12.340;2022-09-03T11:13:26;20.60;51.10
23301;DHT22;11819;51.394;12.340;2022-09-03T11:16:34;20.60;50.90
23301;DHT22;11819;51.394;12.340;2022-09-03T11:19:05;20.70;50.90
23301;DHT22;11819;51.394;12.340;2022-09-03T11:21:33;20.80;50.90
23301;DHT22;11819;51.394;12.340;2022-09-03T11:24:21;20.80;50.80
23301;DHT22;11819;51.394;12.340;2022-09-03T11:29:50;20.90;50.70
23301;DHT22;11819;51.394;12.340;2022-09-03T11:38:04;21.00;49.10
23301;DHT22;11819;51.394;12.340;2022-09-03T11:40:35;21.10;48.90
23301;DHT22;11819;51.394;12.340;2022-09-03T11:43:29;21.10;48.60
23301;DHT22;11819;51.394;12.340;2022-09-03T11:48:51;21.20;48.50
23301;DHT22;11819;51.394;12.340;2022-09-03T11:53:59;21.40;48.70
23301;DHT22;11819;51.394;12.340;2022-09-03T11:56:26;21.50;48.80
23301;DHT22;11819;51.394;12.340;2022-09-03T11:59:00;21.60;49.50
23301;DHT22;11819;51.394;12.340;2022-09-03T12:01:26;21.70;48.80
23301;DHT22;11819;51.394;12.340;2022-09-03T12:04:02;21.80;48.70
23301;DHT22;11819;51.394;12.340;2022-09-03T12:09:48;21.90;48.40
23301;DHT22;11819;51.394;12.340;2022-09-03T12:12:44;22.10;48.70
23301;DHT22;11819;51.394;12.340;2022-09-03T12:18:23;22.30;47.90
23301;DHT22;11819;51.394;12.340;2022-09-03T12:23:40;22.50;47.20
23301;DHT22;11819;51.394;12.340;2022-09-03T12:26:15;22.60;47.10
23301;DHT22;11819;51.394;12.340;2022-09-03T12:28:45;22.80;47.20
23301;DHT22;11819;51.394;12.340;2022-09-03T12:31:20;22.90;47.00
23301;DHT22;11819;51.394;12.340;2022-09-03T12:36:15;23.10;46.50
23301;DHT22;11819;51.394;12.340;2022-09-03T12:38:40;23.30;46.30
23301;DHT22;11819;51.394;12.340;2022-09-03T12:41:22;23.40;46.20
23301;DHT22;11819;51.394;12.340;2022-09-03T12:43:51;23.60;45.80
23301;DHT22;11819;51.394;12.340;2022-09-03T12:46:17;23.70;45.40
23301;DHT22;11819;51.394;12.340;2022-09-03T12:48:56;23.80;45.30
23301;DHT22;11819;51.394;12.340;2022-09-03T12:51:24;24.00;45.30
23301;DHT22;11819;51.394;12.340;2022-09-03T12:53:50;24.20;45.10
23301;DHT22;11819;51.394;12.340;2022-09-03T12:56:17;24.40;44.60
23301;DHT22;11819;51.394;12.340;2022-09-03T12:58:50;24.60;44.30
23301;DHT22;11819;51.394;12.340;2022-09-03T13:01:26;24.80;44.00
23301;DHT22;11819;51.394;12.340;2022-09-03T13:04:09;25.10;44.00
23301;DHT22;11819;51.394;12.340;2022-09-03T13:07:01;25.50;43.60
23301;DHT22;11819;51.394;12.340;2022-09-03T13:09:30;25.70;43.10
23301;DHT22;11819;51.394;12.340;2022-09-03T13:11:57;26.10;43.40
23301;DHT22;11819;51.394;12.340;2022-09-03T13:14:25;26.30;41.90
23301;DHT22;11819;51.394;12.340;2022-09-03T13:17:03;26.50;42.00
23301;DHT22;11819;51.394;12.340;2022-09-03T13:20:02;26.80;41.70
23301;DHT22;11819;51.394;12.340;2022-09-03T13:23:01;27.00;41.20
23301;DHT22;11819;51.394;12.340;2022-09-03T13:25:52;27.30;41.00
23301;DHT22;11819;51.394;12.340;2022-09-03T13:28:50;27.50;40.30
23301;DHT22;11819;51.394;12.340;2022-09-03T13:31:32;27.80;39.70
23301;DHT22;11819;51.394;12.340;2022-09-03T13:34:07;27.90;39.40
23301;DHT22;11819;51.394;12.340;2022-09-03T13:36:44;28.10;39.10
23301;DHT22;11819;51.394;12.340;2022-09-03T13:39:40;28.40;38.90
23301;DHT22;11819;51.394;12.340;2022-09-03T13:42:10;28.60;38.50
23301;DHT22;11819;51.394;12.340;2022-09-03T13:44:45;28.80;38.20
23301;DHT22;11819;51.394;12.340;2022-09-03T13:47:17;29.00;38.10
23301;DHT22;11819;51.394;12.340;2022-09-03T13:49:57;29.20;37.40
23301;DHT22;11819;51.394;12.340;2022-09-03T13:53:01;29.30;37.10
23301;DHT22;11819;51.394;12.340;2022-09-03T13:55:54;29.40;36.90
23301;DHT22;11819;51.394;12.340;2022-09-03T13:58:32;29.50;36.60
23301;DHT22;11819;51.394;12.340;2022-09-03T14:03:30;29.90;36.60
23301;DHT22;11819;51.394;12.340;2022-09-03T14:06:07;30.10;36.40
23301;DHT22;11819;51.394;12.340;2022-09-03T14:08:55;30.30;36.20
23301;DHT22;11819;51.394;12.340;2022-09-03T14:11:31;30.50;35.70
23301;DHT22;11819;51.394;12.340;2022-09-03T14:17:01;30.70;35.40
23301;DHT22;11819;51.394;12.340;2022-09-03T14:19:44;30.90;35.20
23301;DHT22;11819;51.394;12.340;2022-09-03T14:22:20;31.10;35.00
23301;DHT22;11819;51.394;12.340;2022-09-03T14:24:52;31.20;34.60
23301;DHT22;11819;51.394;12.340;2022-09-03T14:27:36;31.30;34.40
23301;DHT22;11819;51.394;12.340;2022-09-03T14:30:24;31.40;34.20
23301;DHT22;11819;51.394;12.340;2022-09-03T14:36:02;31.70;33.90
23301;DHT22;11819;51.394;12.340;2022-09-03T14:38:53;31.80;33.70
23301;DHT22;11819;51.394;12.340;2022-09-03T14:41:32;31.80;33.50
23301;DHT22;11819;51.394;12.340;2022-09-03T14:53:09;32.40;33.00
23301;DHT22;11819;51.394;12.340;2022-09-03T14:55:54;32.20;32.80
23301;DHT22;11819;51.394;12.340;2022-09-03T15:01:32;31.30;32.60
23301;DHT22;11819;51.394;12.340;2022-09-03T15:07:15;30.30;33.20
23301;DHT22;11819;51.394;12.340;2022-09-03T15:09:56;29.70;33.60
23301;DHT22;11819;51.394;12.340;2022-09-03T15:15:04;28.80;34.40
23301;DHT22;11819;51.394;12.340;2022-09-03T15:17:54;28.50;34.70
23301;DHT22;11819;51.394;12.340;2022-09-03T15:20:34;28.30;35.20
23301;DHT22;11819;51.394;12.340;2022-09-03T15:23:25;28.10;35.50
23301;DHT22;11819;51.394;12.340;2022-09-03T15:26:22;27.90;35.70
23301;DHT22;11819;51.394;12.340;2022-09-03T15:34:47;28.50;36.50
23301;DHT22;11819;51.394;12.340;2022-09-03T15:37:29;28.90;36.30
23301;DHT22;11819;51.394;12.340;2022-09-03T15:40:07;29.10;36.10
23301;DHT22;11819;51.394;12.340;2022-09-03T15:42:35;29.30;36.10
23301;DHT22;11819;51.394;12.340;2022-09-03T15:45:07;29.60;35.90
23301;DHT22;11819;51.394;12.340;2022-09-03T15:50:14;30.40;35.40
23301;DHT22;11819;51.394;12.340;2022-09-03T15:52:48;30.80;35.20
23301;DHT22;11819;51.394;12.340;2022-09-03T15:58:01;31.00;34.50
23301;DHT22;11819;51.394;12.340;2022-09-03T16:00:47;30.60;34.30
23301;DHT22;11819;51.394;12.340;2022-09-03T16:03:19;30.20;34.50
23301;DHT22;11819;51.394;12.340;2022-09-03T16:06:01;29.70;34.60
23301;DHT22;11819;51.394;12.340;2022-09-03T16:08:42;29.20;34.90
23301;DHT22;11819;51.394;12.340;2022-09-03T16:14:07;28.40;35.50
23301;DHT22;11819;51.394;12.340;2022-09-03T16:21:59;27.60;36.30
23301;DHT22;11819;51.394;12.340;2022-09-03T16:24:46;27.40;36.60
23301;DHT22;11819;51.394;12.340;2022-09-03T16:27:25;27.20;36.90
23301;DHT22;11819;51.394;12.340;2022-09-03T16:30:00;27.10;37.20
23301;DHT22;11819;51.394;12.340;2022-09-03T16:32:34;26.90;37.40
23301;DHT22;11819;51.394;12.340;2022-09-03T16:35:40;26.80;37.60
23301;DHT22;11819;51.394;12.340;2022-09-03T16:38:30;26.60;37.80
23301;DHT22;11819;51.394;12.340;2022-09-03T16:47:19;26.30;38.50
23301;DHT22;11819;51.394;12.340;2022-09-03T16:50:04;26.10;38.60
23301;DHT22;11819;51.394;12.340;2022-09-03T16:58:47;25.80;39.10
23301;DHT22;11819;51.394;12.340;2022-09-03T17:04:26;25.60;39.40
23301;DHT22;11819;51.394;12.340;2022-09-03T17:12:33;25.40;39.80
23301;DHT22;11819;51.394;12.340;2022-09-03T17:15:34;25.30;40.00
23301;DHT22;11819;51.394;12.340;2022-09-03T17:21:17;25.10;40.20
23301;DHT22;11819;51.394;12.340;2022-09-03T17:29:52;24.90;40.70
23301;DHT22;11819;51.394;12.340;2022-09-03T17:32:43;24.80;40.90
23301;DHT22;11819;51.394;12.340;2022-09-03T17:35:16;24.80;41.10
23301;DHT22;11819;51.394;12.340;2022-09-03T17:41:03;24.70;41.60
23301;DHT22;11819;51.394;12.340;2022-09-03T17:46:10;24.50;42.60
23301;DHT22;11819;51.394;12.340;2022-09-03T17:48:53;24.40;42.20
23301;DHT22;11819;51.394;12.340;2022-09-03T17:57:12;24.10;42.80
23301;DHT22;11819;51.394;12.340;2022-09-03T17:59:49;24.00;43.10
23301;DHT22;11819;51.394;12.340;2022-09-03T18:02:38;24.00;43.30
23301;DHT22;11819;51.394;12.340;2022-09-03T18:05:22;23.90;43.50
23301;DHT22;11819;51.394;12.340;2022-09-03T18:10:29;23.80;43.90
23301;DHT22;11819;51.394;12.340;2022-09-03T18:13:13;23.70;44.10
23301;DHT22;11819;51.394;12.340;2022-09-03T18:16:14;23.60;44.20
23301;DHT22;11819;51.394;12.340;2022-09-03T18:18:47;23.50;44.40
23301;DHT22;11819;51.394;12.340;2022-09-03T18:21:21;23.40;44.60
23301;DHT22;11819;51.394;12.340;2022-09-03T18:24:28;23.40;45.00
23301;DHT22;11819;51.394;12.340;2022-09-03T18:27:26;23.30;45.20
23301;DHT22;11819;51.394;12.340;2022-09-03T18:30:13;23.20;45.40
23301;DHT22;11819;51.394;12.340;2022-09-03T18:32:58;23.10;45.70
23301;DHT22;11819;51.394;12.340;2022-09-03T18:35:44;23.00;45.90
23301;DHT22;11819;51.394;12.340;2022-09-03T18:38:31;23.00;46.10
23301;DHT22;11819;51.394;12.340;2022-09-03T18:44:51;22.90;46.80
23301;DHT22;11819;51.394;12.340;2022-09-03T18:51:00;22.70;46.90
23301;DHT22;11819;51.394;12.340;2022-09-03T18:54:16;22.70;47.20
23301;DHT22;11819;51.394;12.340;2022-09-03T18:57:17;22.70;47.40
23301;DHT22;11819;51.394;12.340;2022-09-03T19:00:07;22.60;47.60
23301;DHT22;11819;51.394;12.340;2022-09-03T19:03:02;22.50;48.40
23301;DHT22;11819;51.394;12.340;2022-09-03T19:08:56;22.40;48.00
23301;DHT22;11819;51.394;12.340;2022-09-03T19:12:11;22.40;48.30
23301;DHT22;11819;51.394;12.340;2022-09-03T19:15:08;22.40;48.40
23301;DHT22;11819;51.394;12.340;2022-09-03T19:18:08;22.30;48.50
23301;DHT22;11819;51.394;12.340;2022-09-03T19:21:01;22.30;48.70